Terminal Aerodrome Forecast
Issued by NWS

Home | Current Version | Previous Version | Text Only | Print | Product List | Glossary On
Versions: 1 2 3 4 5 6 7 8 9 10 11 12 13 14 15 16 17 18 19 20 21 22 23 24 25 26 27 28 29
000
FTUS45 KCYS 032334
TAFLAR
TAF
KLAR 032334Z 0400/0424 22013KT P6SM -SHRA SCT050 OVC080
     FM040300 21008KT P6SM SCT120 BKN250
     FM042000 17012KT P6SM VCTS SCT100CB BKN200=

USA.gov is the U.S. government's official web portal to all federal, state and local government web resources and services.